Time;durP1;ratioP1;P1;durP2;ratioP2;P2;SDS_P1;SDS_P2;PMS_P1;PMS_P2;Temp;Humidity;BMP_temperature;BMP_pressure;BME280_temperature;BME280_humidity;BME280_pressure;Samples;Min_cycle;Max_cycle;Signal;HPM_P1;HPM_P2
2022/04/16 00:00:27;;;;;;;7.65;5.22;;;;;;;7.17;96.72;103223.06;5055245;28;20037;-69
2022/04/16 00:02:54;;;;;;;8.45;5.35;;;;;;;7.18;96.82;103234.47;5057695;28;20036;-69
2022/04/16 00:05:20;;;;;;;6.75;5.05;;;;;;;7.18;96.73;103224.81;5058407;28;21000;-69
2022/04/16 00:08:06;;;;;;;9.23;5.13;;;;;;;7.20;97.20;103227.47;5039737;28;20158;-69
2022/04/16 00:10:32;;;;;;;9.60;5.07;;;;;;;7.22;97.09;103227.47;5057335;28;20648;-69
2022/04/16 00:12:57;;;;;;;9.02;5.13;;;;;;;7.25;97.15;103231.00;5055780;28;21903;-69
2022/04/16 00:15:23;;;;;;;10.85;5.47;;;;;;;7.27;97.00;103223.13;5057030;28;20067;-69
2022/04/16 00:17:49;;;;;;;9.40;5.57;;;;;;;7.27;96.69;103220.47;5059659;28;20586;-69
2022/04/16 00:20:15;;;;;;;9.65;5.65;;;;;;;7.28;97.02;103216.97;5040994;28;20159;-69
2022/04/16 00:22:40;;;;;;;10.32;5.35;;;;;;;7.29;97.10;103218.72;5058445;28;20025;-69
2022/04/16 00:25:07;;;;;;;8.30;4.95;;;;;;;7.31;96.97;103219.66;5058695;28;20055;-69
2022/04/16 00:27:34;;;;;;;8.45;4.95;;;;;;;7.32;97.08;103224.03;5055394;28;20076;-69
2022/04/16 00:30:01;;;;;;;8.95;5.95;;;;;;;7.32;97.02;103221.41;5040345;28;20033;-69
2022/04/16 00:32:27;;;;;;;8.80;5.63;;;;;;;7.32;96.95;103222.25;5055121;28;20032;-70
2022/04/16 00:34:53;;;;;;;10.60;5.38;;;;;;;7.34;96.88;103220.53;5056585;28;20040;-67
2022/04/16 00:37:18;;;;;;;9.82;5.63;;;;;;;7.35;96.70;103221.41;5040585;28;20136;-70
2022/04/16 00:39:44;;;;;;;10.05;5.70;;;;;;;7.35;97.41;103221.41;5058812;28;20033;-70
2022/04/16 00:42:09;;;;;;;10.60;5.53;;;;;;;7.38;97.06;103225.81;5058497;28;20593;-68
2022/04/16 00:44:35;;;;;;;9.48;5.95;;;;;;;7.38;97.09;103229.34;5056128;28;20052;-68
2022/04/16 00:47:00;;;;;;;9.43;5.65;;;;;;;7.38;97.21;103229.34;5055930;28;20037;-68
2022/04/16 00:49:26;;;;;;;9.98;5.40;;;;;;;7.38;96.91;103223.19;5057853;28;20044;-69
2022/04/16 00:51:51;;;;;;;9.65;5.97;;;;;;;7.36;97.02;103220.56;5040301;28;20165;-69
2022/04/16 00:54:18;;;;;;;10.57;5.95;;;;;;;7.36;97.12;103230.22;5057164;28;20066;-69
2022/04/16 00:56:44;;;;;;;9.80;5.68;;;;;;;7.34;97.02;103235.47;5041973;28;20697;-69
2022/04/16 00:59:10;;;;;;;10.90;5.57;;;;;;;7.34;96.62;103230.19;5055057;28;20621;-69
2022/04/16 01:01:36;;;;;;;10.75;6.25;;;;;;;7.33;96.88;103231.97;5057630;28;20174;-69
2022/04/16 01:04:01;;;;;;;10.38;5.97;;;;;;;7.33;97.03;103233.69;5023298;28;20075;-69
2022/04/16 01:06:37;;;;;;;10.15;5.47;;;;;;;7.34;97.07;103240.72;5057863;28;20967;-69
2022/04/16 01:09:03;;;;;;;9.07;5.45;;;;;;;7.33;97.12;103244.25;5054412;28;20063;-69
2022/04/16 01:11:29;;;;;;;9.55;5.43;;;;;;;7.33;97.13;103241.59;5020675;28;20041;-68
2022/04/16 01:13:56;;;;;;;8.07;5.05;;;;;;;7.33;97.21;103249.50;5034614;28;21383;-68
2022/04/16 01:16:21;;;;;;;8.80;5.47;;;;;;;7.32;96.84;103247.75;5025364;28;20067;-68
2022/04/16 01:18:47;;;;;;;10.70;5.72;;;;;;;7.32;97.57;103253.88;5054748;28;20471;-68
2022/04/16 01:21:13;;;;;;;9.65;6.10;;;;;;;7.32;97.54;103253.03;5054768;28;20058;-68
2022/04/16 01:23:39;;;;;;;9.60;5.78;;;;;;;7.32;97.60;103250.38;5054393;28;20029;-69
2022/04/16 01:26:06;;;;;;;9.57;6.20;;;;;;;7.29;97.72;103255.63;5052594;28;21792;-68
2022/04/16 01:28:32;;;;;;;10.23;6.03;;;;;;;7.28;97.75;103262.66;5051634;28;20115;-68
2022/04/16 01:30:57;;;;;;;9.75;6.05;;;;;;;7.29;97.79;103266.16;5051817;28;20028;-69
2022/04/16 01:33:23;;;;;;;9.93;6.03;;;;;;;7.25;97.38;103267.91;5054309;28;20056;-68
2022/04/16 01:35:51;;;;;;;10.23;6.35;;;;;;;7.24;97.71;103275.81;5053012;28;20055;-68
2022/04/16 01:38:17;;;;;;;10.00;6.10;;;;;;;7.21;97.64;103279.31;5054083;28;20115;-68
2022/04/16 01:40:42;;;;;;;14.18;7.47;;;;;;;7.18;98.16;103271.34;5054401;28;20041;-69
2022/04/16 01:43:08;;;;;;;9.05;5.88;;;;;;;7.16;98.08;103279.28;5052573;28;20090;-69
2022/04/16 01:45:34;;;;;;;10.10;5.90;;;;;;;7.14;98.21;103285.41;5054252;28;20020;-69
2022/04/16 01:47:59;;;;;;;9.85;5.97;;;;;;;7.11;98.75;103285.34;5053322;28;20483;-68
2022/04/16 01:50:25;;;;;;;12.88;6.53;;;;;;;7.10;98.68;103284.50;5054867;28;20044;-68
2022/04/16 01:52:52;;;;;;;11.15;6.32;;;;;;;7.11;98.81;103278.34;5053734;28;20071;-69
2022/04/16 01:55:17;;;;;;;10.95;6.13;;;;;;;7.11;98.64;103277.44;5035209;28;21367;-69
2022/04/16 01:57:43;;;;;;;11.07;6.72;;;;;;;7.11;99.16;103273.06;5051942;28;20039;-68
2022/04/16 02:00:14;;;;;;;11.38;6.65;;;;;;;7.11;99.15;103275.72;5052555;28;20036;-69
2022/04/16 02:02:40;;;;;;;11.90;6.80;;;;;;;7.13;99.45;103279.22;5054928;28;20079;-68
2022/04/16 02:05:06;;;;;;;11.02;6.18;;;;;;;7.11;99.39;103280.97;5051888;28;20054;-68
2022/04/16 02:07:32;;;;;;;13.60;6.65;;;;;;;7.11;99.90;103277.44;5052562;28;20123;-68
2022/04/16 02:09:57;;;;;;;14.27;7.18;;;;;;;7.11;100.00;103280.09;5052665;28;20510;-68
2022/04/16 02:12:23;;;;;;;12.68;7.25;;;;;;;7.11;100.00;103291.53;5052577;28;20038;-70
2022/04/16 02:14:48;;;;;;;10.57;6.45;;;;;;;7.11;100.00;103280.97;5051048;28;21787;-68
2022/04/16 02:17:14;;;;;;;12.60;7.40;;;;;;;7.11;100.00;103280.97;5051778;28;20032;-68
2022/04/16 02:19:41;;;;;;;14.60;7.55;;;;;;;7.11;100.00;103285.34;5050642;28;20033;-69
2022/04/16 02:22:07;;;;;;;11.57;7.30;;;;;;;7.11;100.00;103285.34;5050302;28;20057;-69
2022/04/16 02:24:32;;;;;;;11.90;7.03;;;;;;;7.11;100.00;103282.72;5051403;28;20040;-69
2022/04/16 02:26:58;;;;;;;12.73;7.72;;;;;;;7.09;100.00;103285.38;5050320;28;20064;-69
2022/04/16 02:29:23;;;;;;;14.82;8.30;;;;;;;7.08;100.00;103288.84;5052631;28;20052;-69
2022/04/16 02:31:49;;;;;;;14.07;8.30;;;;;;;7.08;100.00;103296.75;5050257;28;20110;-68
2022/04/16 02:34:16;;;;;;;15.55;8.55;;;;;;;7.07;100.00;103297.63;5051010;28;20155;-69
2022/04/16 02:36:42;;;;;;;14.50;7.95;;;;;;;7.04;100.00;103289.69;5032383;28;20805;-68
2022/04/16 02:39:10;;;;;;;15.82;8.75;;;;;;;7.02;100.00;103294.94;5051699;28;20052;-69
2022/04/16 02:41:35;;;;;;;14.65;8.50;;;;;;;7.01;100.00;103300.19;5050895;28;20040;-68
2022/04/16 02:44:01;;;;;;;15.23;8.77;;;;;;;6.98;100.00;103300.19;5052046;28;20056;-69
2022/04/16 02:49:13;;;;;;;16.40;7.97;;;;;;;6.93;100.00;103298.38;5053367;28;20101;-69
2022/04/16 02:51:39;;;;;;;18.17;8.50;;;;;;;6.95;100.00;103302.78;5052388;28;20044;-68
2022/04/16 02:54:05;;;;;;;15.45;8.02;;;;;;;6.97;100.00;103301.06;5052892;28;20573;-68
2022/04/16 02:56:31;;;;;;;15.50;8.57;;;;;;;6.96;100.00;103305.44;5052552;28;20593;-69
2022/04/16 02:58:57;;;;;;;14.63;8.88;;;;;;;6.98;100.00;103308.09;5051312;28;20108;-69
2022/04/16 03:01:22;;;;;;;15.38;8.48;;;;;;;6.97;100.00;103314.22;5050828;28;20143;-69
2022/04/16 03:03:48;;;;;;;15.43;8.07;;;;;;;6.96;100.00;103323.00;5051402;28;20127;-69
2022/04/16 03:06:13;;;;;;;16.80;8.63;;;;;;;6.92;100.00;103322.94;5051836;28;20123;-69
2022/04/16 03:08:39;;;;;;;17.70;8.63;;;;;;;6.91;100.00;103323.81;5048788;28;20623;-69
2022/04/16 03:11:04;;;;;;;15.93;8.57;;;;;;;6.91;100.00;103320.28;5032958;28;20121;-69
2022/04/16 03:13:34;;;;;;;16.15;8.55;;;;;;;6.90;100.00;103322.06;5051631;28;20040;-69
2022/04/16 03:18:48;;;;;;;15.25;8.35;;;;;;;6.85;100.00;103321.13;5050621;28;20438;-69
2022/04/16 03:21:14;;;;;;;17.67;8.82;;;;;;;6.83;100.00;103322.88;5033558;28;20054;-69
2022/04/16 03:23:40;;;;;;;16.50;8.50;;;;;;;6.82;100.00;103322.84;5051752;28;20431;-69
2022/04/16 03:26:06;;;;;;;15.70;8.50;;;;;;;6.81;100.00;103324.59;5051873;28;20114;-69
2022/04/16 03:28:32;;;;;;;16.95;9.07;;;;;;;6.81;100.00;103321.09;5050282;28;20762;-69
2022/04/16 03:31:00;;;;;;;18.02;8.52;;;;;;;6.81;100.00;103329.00;5051191;28;20656;-69
2022/04/16 03:33:28;;;;;;;17.90;9.68;;;;;;;6.77;100.00;103325.44;5031534;28;20813;-69
2022/04/16 03:35:54;;;;;;;20.35;9.45;;;;;;;6.75;100.00;103327.19;5050054;28;20171;-69
2022/04/16 03:38:19;;;;;;;19.02;9.93;;;;;;;6.73;100.00;103331.53;5053241;28;20905;-69
2022/04/16 03:40:48;;;;;;;19.38;9.48;;;;;;;6.70;100.00;103332.38;5051494;28;20108;-69
2022/04/16 03:43:13;;;;;;;16.27;9.20;;;;;;;6.70;100.00;103321.84;5052131;28;20054;-69
2022/04/16 03:45:39;;;;;;;18.38;8.93;;;;;;;6.70;100.00;103329.75;5052084;28;21521;-69
2022/04/16 03:48:06;;;;;;;18.70;10.07;;;;;;;6.68;100.00;103325.31;5052064;28;20468;-69
2022/04/16 03:50:32;;;;;;;17.17;9.57;;;;;;;6.68;100.00;103330.59;5049437;28;20025;-69
2022/04/16 03:52:58;;;;;;;16.52;9.60;;;;;;;6.65;100.00;103334.97;5050010;28;20036;-69
2022/04/16 04:00:56;;;;;;;19.67;9.20;;;;;;;6.59;100.00;103342.78;5048935;28;21637;-69
2022/04/16 04:03:22;;;;;;;17.38;9.13;;;;;;;6.58;100.00;103340.16;5052637;28;20028;-69
2022/04/16 04:05:49;;;;;;;17.52;9.45;;;;;;;6.57;100.00;103355.06;5051830;28;20789;-70
2022/04/16 04:08:16;;;;;;;20.00;10.10;;;;;;;6.55;100.00;103350.63;5031294;28;20049;-70
2022/04/16 04:10:41;;;;;;;19.73;9.25;;;;;;;6.54;100.00;103351.50;5030664;28;20368;-69
2022/04/16 04:13:07;;;;;;;20.38;9.88;;;;;;;6.47;100.00;103350.53;5031983;28;20066;-69
2022/04/16 04:15:33;;;;;;;16.45;9.13;;;;;;;6.39;100.00;103351.31;5050958;28;20028;-69
2022/04/16 04:17:59;;;;;;;17.27;9.15;;;;;;;6.34;100.00;103345.16;5032844;28;20105;-69
2022/04/16 04:20:26;;;;;;;18.95;9.95;;;;;;;6.29;100.00;103352.09;5049334;28;20114;-69
2022/04/16 04:22:51;;;;;;;22.45;11.00;;;;;;;6.27;100.00;103350.31;5051024;28;20025;-69
2022/04/16 04:25:17;;;;;;;20.90;10.15;;;;;;;6.22;100.00;103345.84;5032819;28;20036;-69
2022/04/16 04:27:43;;;;;;;17.75;9.45;;;;;;;6.20;100.00;103360.75;5049445;28;20047;-69
2022/04/16 04:30:09;;;;;;;19.45;10.25;;;;;;;6.15;100.00;103348.41;5049679;28;20029;-69
2022/04/16 04:32:36;;;;;;;21.55;10.65;;;;;;;6.11;100.00;103353.59;5052651;28;20048;-69
2022/04/16 04:35:02;;;;;;;16.83;9.45;;;;;;;6.08;100.00;103356.22;5050895;28;20037;-69
2022/04/16 04:37:28;;;;;;;18.67;10.25;;;;;;;6.06;100.00;103362.31;5050731;28;20516;-69
2022/04/16 04:39:53;;;;;;;22.00;9.75;;;;;;;6.03;100.00;103365.78;5050455;28;20065;-70
2022/04/16 04:42:23;;;;;;;21.73;10.00;;;;;;;6.02;100.00;103356.13;5049344;28;20723;-69
2022/04/16 04:44:48;;;;;;;19.38;10.05;;;;;;;6.03;100.00;103370.13;5050711;28;20048;-69
2022/04/16 04:47:14;;;;;;;20.83;9.52;;;;;;;6.04;100.00;103371.94;5052498;28;20043;-69
2022/04/16 04:49:39;;;;;;;18.80;9.95;;;;;;;6.04;100.00;103378.06;5054309;28;20140;-69
2022/04/16 04:52:05;;;;;;;17.35;9.60;;;;;;;6.06;100.00;103373.69;5025016;28;20052;-69
2022/04/16 04:54:31;;;;;;;20.92;10.32;;;;;;;6.07;100.00;103387.75;5053213;28;20114;-69
2022/04/16 04:56:56;;;;;;;20.38;10.10;;;;;;;6.07;100.00;103380.75;5035914;28;20041;-69
2022/04/16 04:59:22;;;;;;;21.58;10.32;;;;;;;6.07;100.00;103385.13;5053083;28;20030;-69
2022/04/16 05:01:47;;;;;;;22.00;9.95;;;;;;;6.07;100.00;103391.28;5054632;28;20020;-69
2022/04/16 05:04:12;;;;;;;20.42;10.57;;;;;;;6.09;100.00;103386.91;5054566;28;20032;-69
2022/04/16 05:06:38;;;;;;;20.67;10.57;;;;;;;6.14;100.00;103388.72;5054995;28;20029;-69
2022/04/16 05:09:03;;;;;;;19.65;10.60;;;;;;;6.16;100.00;103387.88;5054043;28;20054;-69
2022/04/16 05:11:29;;;;;;;27.05;11.23;;;;;;;6.19;100.00;103387.03;5053399;28;20048;-69
2022/04/16 05:13:55;;;;;;;19.80;10.60;;;;;;;6.22;100.00;103387.09;5054591;28;20435;-69
2022/04/16 05:16:20;;;;;;;25.75;11.73;;;;;;;6.24;100.00;103395.88;5052007;28;20909;-69
2022/04/16 05:18:45;;;;;;;23.10;11.30;;;;;;;6.30;100.00;103400.31;5054474;28;20037;-70
2022/04/16 05:21:11;;;;;;;21.30;10.43;;;;;;;6.32;100.00;103402.13;5053854;28;20040;-69
2022/04/16 05:23:39;;;;;;;22.58;10.80;;;;;;;6.35;100.00;103393.38;5054666;28;20040;-69
2022/04/16 05:26:07;;;;;;;23.80;11.07;;;;;;;6.37;100.00;103403.06;5053297;28;20037;-69
2022/04/16 05:28:33;;;;;;;22.92;11.75;;;;;;;6.39;100.00;103409.22;5052842;28;20036;-69
2022/04/16 05:30:59;;;;;;;22.83;10.80;;;;;;;6.42;100.00;103404.88;5055073;28;20036;-69
2022/04/16 05:36:09;;;;;;;24.08;11.38;;;;;;;6.49;100.00;103406.72;5054847;28;20040;-69
2022/04/16 05:38:35;;;;;;;21.52;10.95;;;;;;;6.52;100.00;103412.03;5052650;28;20055;-69
2022/04/16 05:41:00;;;;;;;23.98;11.23;;;;;;;6.55;100.00;103414.72;5034651;28;20086;-69
2022/04/16 05:43:26;;;;;;;25.77;12.00;;;;;;;6.61;100.00;103414.78;5032379;28;20043;-69
2022/04/16 05:45:52;;;;;;;24.55;11.55;;;;;;;6.65;100.00;103419.22;5034331;28;20041;-69
2022/04/16 05:48:18;;;;;;;23.05;11.55;;;;;;;6.72;100.00;103414.03;5052292;28;20999;-69
2022/04/16 05:50:44;;;;;;;22.73;11.98;;;;;;;6.78;100.00;103422.00;5032484;28;20036;-72
2022/04/16 05:53:14;;;;;;;24.45;11.82;;;;;;;6.86;100.00;103415.06;5050780;28;20028;-67
2022/04/16 05:55:41;;;;;;;24.02;11.55;;;;;;;6.91;100.00;103418.63;5051472;28;20025;-70
2022/04/16 05:58:07;;;;;;;24.40;10.90;;;;;;;6.96;100.00;103421.31;5050335;28;20032;-68
2022/04/16 06:00:33;;;;;;;22.02;11.18;;;;;;;7.01;100.00;103422.25;5051054;28;20223;-69
2022/04/16 06:02:59;;;;;;;26.70;12.23;;;;;;;7.09;100.00;103424.09;5052475;28;20099;-69
2022/04/16 06:05:24;;;;;;;20.60;11.02;;;;;;;7.13;100.00;103432.03;5052804;28;20060;-67
2022/04/16 06:07:50;;;;;;;23.67;11.70;;;;;;;7.18;100.00;103430.34;5051472;28;20281;-68
2022/04/16 06:10:15;;;;;;;23.08;11.60;;;;;;;7.24;100.00;103429.50;5050426;28;20033;-69
2022/04/16 06:12:41;;;;;;;22.63;11.52;;;;;;;7.28;100.00;103431.31;5050929;28;20035;-70
2022/04/16 06:15:07;;;;;;;19.92;10.65;;;;;;;7.32;100.00;103433.09;5050242;28;20024;-69
2022/04/16 06:17:33;;;;;;;24.63;12.50;;;;;;;7.33;100.00;103429.63;5051105;28;20302;-69
2022/04/16 06:19:59;;;;;;;22.17;11.80;;;;;;;7.36;100.00;103427.88;5052176;28;20113;-69
2022/04/16 06:22:24;;;;;;;23.30;10.77;;;;;;;7.37;100.00;103430.53;5050654;28;20024;-68
2022/04/16 06:24:50;;;;;;;21.98;11.73;;;;;;;7.42;100.00;103425.28;5051109;28;20475;-69
2022/04/16 06:27:15;;;;;;;26.85;12.00;;;;;;;7.44;100.00;103429.72;5051851;28;20024;-69
2022/04/16 06:29:41;;;;;;;18.52;9.10;;;;;;;7.45;100.00;103428.84;5051374;28;20791;-70
2022/04/16 06:32:07;;;;;;;24.70;11.00;;;;;;;7.48;100.00;103428.84;5005306;28;20402;-68
2022/04/16 06:34:33;;;;;;;24.35;11.70;;;;;;;7.51;100.00;103433.28;5048813;28;20145;-68
2022/04/16 06:36:59;;;;;;;17.63;9.95;;;;;;;7.51;100.00;103432.41;5051282;28;20031;-68
2022/04/16 06:39:28;;;;;;;21.42;10.75;;;;;;;7.53;100.00;103439.47;5051436;28;20028;-70
2022/04/16 06:41:54;;;;;;;16.50;9.20;;;;;;;7.51;100.00;103429.78;5051171;28;20036;-69
2022/04/16 06:44:19;;;;;;;20.05;10.07;;;;;;;7.51;100.00;103435.06;5018739;28;20181;-69
2022/04/16 06:46:46;;;;;;;14.57;8.48;;;;;;;7.53;100.00;103441.22;5046687;28;20869;-69
2022/04/16 06:49:11;;;;;;;20.38;8.65;;;;;;;7.57;100.00;103433.34;5050642;28;20044;-69
2022/04/16 06:51:37;;;;;;;17.33;8.75;;;;;;;7.63;100.00;103429.00;5047128;28;20323;-68
2022/04/16 06:54:02;;;;;;;13.40;6.72;;;;;;;7.64;100.00;103439.56;5049792;28;21963;-69
2022/04/16 06:56:28;;;;;;;15.80;7.43;;;;;;;7.61;100.00;103447.44;5048514;28;20752;-69
2022/04/16 06:58:53;;;;;;;13.80;7.60;;;;;;;7.61;100.00;103445.69;5050102;28;20162;-68
2022/04/16 07:01:19;;;;;;;14.38;7.00;;;;;;;7.71;100.00;103459.84;5051442;28;20123;-69
2022/04/16 07:03:44;;;;;;;15.52;7.85;;;;;;;7.78;100.00;103451.97;5053396;28;20055;-69
2022/04/16 07:06:10;;;;;;;12.00;6.63;;;;;;;7.77;100.00;103455.47;5053437;28;20028;-68
2022/04/16 07:08:35;;;;;;;12.43;6.88;;;;;;;7.79;100.00;103464.28;5052327;28;21649;-68
2022/04/16 07:11:01;;;;;;;15.88;8.13;;;;;;;7.86;100.00;103466.09;5052877;28;20033;-69
2022/04/16 07:13:26;;;;;;;15.50;8.23;;;;;;;8.00;100.00;103460.91;5034017;28;20032;-68
2022/04/16 07:15:52;;;;;;;13.68;7.05;;;;;;;8.10;100.00;103462.75;5049541;28;21880;-68
2022/04/16 07:18:17;;;;;;;12.40;7.15;;;;;;;8.18;100.00;103470.75;5052585;28;20041;-69
2022/04/16 07:20:43;;;;;;;11.00;6.00;;;;;;;8.22;100.00;103464.59;5051629;28;20044;-68
2022/04/16 07:23:09;;;;;;;10.45;6.13;;;;;;;8.22;100.00;103463.72;5052806;28;20123;-69
2022/04/16 07:25:35;;;;;;;11.23;6.60;;;;;;;8.21;100.00;103464.56;5035563;28;20078;-69
2022/04/16 07:28:00;;;;;;;11.93;6.18;;;;;;;8.21;100.00;103459.28;5032110;28;20218;-68
2022/04/16 07:30:27;;;;;;;10.00;5.65;;;;;;;8.26;100.00;103463.75;5048809;28;20337;-67
2022/04/16 07:32:53;;;;;;;14.95;6.75;;;;;;;8.34;100.00;103461.13;5049021;28;20037;-67
2022/04/16 07:35:19;;;;;;;12.32;6.45;;;;;;;8.41;99.92;103449.72;5047695;28;20036;-67
2022/04/16 07:37:46;;;;;;;11.25;5.97;;;;;;;8.48;100.00;103455.94;5049711;28;20173;-68
2022/04/16 07:40:12;;;;;;;12.93;6.38;;;;;;;8.51;99.15;103458.63;5013882;28;20154;-67
2022/04/16 07:42:38;;;;;;;9.30;6.10;;;;;;;8.55;98.95;103452.50;5031078;28;20033;-67
2022/04/16 07:45:04;;;;;;;11.57;5.93;;;;;;;8.61;98.79;103458.69;5047941;28;20036;-67
2022/04/16 07:47:30;;;;;;;12.60;6.30;;;;;;;8.68;98.68;103468.41;5048521;28;20049;-67
2022/04/16 07:49:55;;;;;;;11.82;6.45;;;;;;;8.75;98.82;103464.91;5048371;28;20076;-67
2022/04/16 07:52:24;;;;;;;9.27;5.80;;;;;;;8.82;98.23;103465.81;5049717;28;20468;-67
2022/04/16 07:54:51;;;;;;;10.82;5.93;;;;;;;8.88;98.06;103467.59;5049686;28;20031;-68
2022/04/16 07:57:17;;;;;;;12.65;6.70;;;;;;;8.96;98.21;103468.50;5035542;28;20158;-68
2022/04/16 07:59:42;;;;;;;9.77;5.93;;;;;;;9.09;97.13;103464.13;5043515;28;20078;-68
2022/04/16 08:02:08;;;;;;;10.35;5.35;;;;;;;9.20;96.77;103478.25;5050184;28;20463;-67
2022/04/16 08:04:34;;;;;;;11.75;6.30;;;;;;;9.33;96.85;103467.72;5050692;28;20044;-68
2022/04/16 08:06:59;;;;;;;10.60;5.53;;;;;;;9.46;96.85;103476.53;5030937;28;20024;-68
2022/04/16 08:09:25;;;;;;;11.70;5.95;;;;;;;9.58;95.54;103476.56;5033079;28;20994;-67
2022/04/16 08:11:50;;;;;;;11.00;5.63;;;;;;;9.70;95.29;103477.47;5033616;28;20445;-68
2022/04/16 08:14:15;;;;;;;10.90;5.95;;;;;;;9.79;95.05;103477.44;5048203;28;20028;-68
2022/04/16 08:16:41;;;;;;;9.50;5.78;;;;;;;9.88;94.33;103472.19;5049459;28;20077;-67
2022/04/16 08:19:06;;;;;;;10.07;5.53;;;;;;;10.00;93.93;103475.69;5049800;28;20035;-68
2022/04/16 08:21:34;;;;;;;8.45;5.13;;;;;;;10.13;93.08;103472.13;5051201;28;20039;-68
2022/04/16 08:24:13;;;;;;;8.85;4.63;;;;;;;10.29;92.91;103477.38;5053849;28;21720;-68
2022/04/16 08:26:42;;;;;;;9.70;5.30;;;;;;;10.45;92.45;103471.22;5055912;28;20036;-67
2022/04/16 08:29:07;;;;;;;12.55;5.35;;;;;;;10.57;92.23;103467.63;5055029;28;20503;-68
2022/04/16 08:31:33;;;;;;;9.82;5.68;;;;;;;10.66;91.92;103472.03;5055733;28;20047;-68
2022/04/16 08:33:59;;;;;;;10.43;5.60;;;;;;;10.80;90.90;103474.63;5057197;28;20071;-68
2022/04/16 08:36:25;;;;;;;6.53;4.68;;;;;;;10.94;90.90;103478.97;5055809;28;20683;-69
2022/04/16 08:38:51;;;;;;;7.55;4.88;;;;;;;10.99;89.18;103478.06;5051572;28;20635;-69
2022/04/16 08:41:17;;;;;;;7.25;4.68;;;;;;;11.06;89.30;103480.69;5050561;28;20043;-69
2022/04/16 08:43:42;;;;;;;9.18;4.35;;;;;;;11.14;88.31;103482.41;5052518;28;20340;-69
2022/04/16 08:46:08;;;;;;;6.90;4.10;;;;;;;11.24;87.51;103485.00;5050422;28;20032;-68
2022/04/16 08:48:36;;;;;;;8.05;4.53;;;;;;;11.38;88.20;103468.97;5052293;28;20186;-68
2022/04/16 08:51:01;;;;;;;8.80;4.53;;;;;;;11.46;86.54;103467.19;5050216;28;20539;-68
2022/04/16 08:53:27;;;;;;;6.38;4.15;;;;;;;11.58;87.01;103479.47;5052198;28;20086;-70
2022/04/16 08:55:53;;;;;;;8.68;4.68;;;;;;;11.72;86.81;103463.41;5032674;28;20043;-68
2022/04/16 08:58:19;;;;;;;8.23;4.80;;;;;;;11.79;85.34;103467.81;5053060;28;20036;-69
2022/04/16 09:00:44;;;;;;;8.75;4.80;;;;;;;11.87;83.95;103466.84;5055943;28;20425;-69
2022/04/16 09:03:10;;;;;;;7.85;4.20;;;;;;;11.95;84.61;103467.66;5055679;28;20566;-69
2022/04/16 09:05:36;;;;;;;7.53;4.70;;;;;;;12.05;84.33;103468.50;5056000;28;20356;-70
2022/04/16 09:08:03;;;;;;;6.95;4.15;;;;;;;12.16;82.87;103474.56;5054839;28;20740;-70
2022/04/16 09:10:34;;;;;;;7.43;4.50;;;;;;;12.20;83.49;103472.78;5056637;28;20032;-69
2022/04/16 09:13:01;;;;;;;6.68;4.07;;;;;;;12.31;82.94;103476.19;5054441;28;20036;-69
2022/04/16 09:15:28;;;;;;;6.55;4.25;;;;;;;12.40;81.70;103464.56;5055682;28;20028;-70
2022/04/16 09:17:59;;;;;;;6.15;3.42;;;;;;;12.55;81.90;103458.22;5055488;28;20042;-69
2022/04/16 09:20:29;;;;;;;5.53;3.60;;;;;;;12.59;80.92;103457.25;5056282;28;20086;-69
2022/04/16 09:22:55;;;;;;;8.80;4.00;;;;;;;12.70;80.77;103454.47;5037436;28;20036;-69
2022/04/16 09:25:20;;;;;;;5.13;3.50;;;;;;;12.76;79.52;103457.03;5055679;28;20061;-69
2022/04/16 09:27:51;;;;;;;7.25;3.80;;;;;;;12.71;79.16;103469.53;5053610;28;21503;-69
2022/04/16 09:30:29;;;;;;;5.78;3.90;;;;;;;12.73;78.77;103473.03;5042939;28;20036;-69
2022/04/16 09:32:59;;;;;;;5.28;3.50;;;;;;;12.88;79.96;103469.31;5053359;28;20033;-69
2022/04/16 09:35:28;;;;;;;8.73;4.03;;;;;;;12.96;79.33;103468.31;5055354;28;20037;-69
2022/04/16 09:37:58;;;;;;;5.10;3.13;;;;;;;13.07;79.31;103466.38;5054444;28;20034;-67
2022/04/16 09:40:29;;;;;;;3.95;3.00;;;;;;;13.12;77.32;103467.19;5053285;28;20520;-67
2022/04/16 09:42:57;;;;;;;4.53;2.85;;;;;;;13.20;78.42;103472.41;5054527;28;20132;-67
2022/04/16 09:45:23;;;;;;;4.45;2.88;;;;;;;13.26;77.85;103466.13;5055842;28;20365;-67
2022/04/16 09:47:49;;;;;;;6.10;3.22;;;;;;;13.28;77.43;103465.19;5054490;28;20032;-67
2022/04/16 09:50:17;;;;;;;5.57;3.60;;;;;;;13.37;78.63;103464.19;5055041;28;20060;-67
2022/04/16 09:52:43;;;;;;;5.03;3.20;;;;;;;13.53;79.33;103461.28;5037868;28;20352;-66
2022/04/16 09:55:10;;;;;;;5.53;3.13;;;;;;;13.62;77.42;103463.78;5055181;28;20033;-67
2022/04/16 09:57:38;;;;;;;3.78;2.50;;;;;;;13.60;75.59;103459.41;5055971;28;20043;-67
2022/04/16 10:00:04;;;;;;;4.15;3.33;;;;;;;13.54;75.46;103455.06;5055149;28;20036;-67
2022/04/16 10:02:31;;;;;;;4.05;2.50;;;;;;;13.57;76.10;103455.88;5057106;28;20034;-67
2022/04/16 10:04:59;;;;;;;4.78;2.78;;;;;;;13.52;75.52;103468.38;5037941;28;20759;-67
2022/04/16 10:07:25;;;;;;;3.42;2.50;;;;;;;13.47;73.66;103461.41;5037882;28;20032;-67
2022/04/16 10:09:53;;;;;;;3.25;2.35;;;;;;;13.37;74.16;103456.19;5056246;28;20786;-67
2022/04/16 10:15:10;;;;;;;3.70;2.38;;;;;;;13.23;70.01;103451.06;5041376;28;20044;-67
2022/04/16 10:17:42;;;;;;;3.38;2.28;;;;;;;13.13;71.17;103465.44;5022406;28;20048;-72
2022/04/16 10:20:12;;;;;;;2.20;1.80;;;;;;;13.06;70.43;103461.09;5056882;28;20032;-71
2022/04/16 10:22:38;;;;;;;1.95;1.63;;;;;;;13.06;70.85;103453.97;5013325;28;20040;-70
2022/04/16 10:25:05;;;;;;;1.75;1.60;;;;;;;12.99;69.75;103458.53;5037801;28;20024;-70
2022/04/16 10:27:32;;;;;;;2.28;1.75;;;;;;;12.92;69.62;103455.97;5053661;28;20032;-71
2022/04/16 10:30:03;;;;;;;2.97;1.80;;;;;;;12.88;69.29;103455.13;5051920;28;20123;-70
2022/04/16 10:32:45;;;;;;;1.95;1.45;;;;;;;12.92;67.71;103466.59;5054512;28;20060;-70
2022/04/16 10:35:15;;;;;;;2.20;1.70;;;;;;;12.92;69.05;103458.63;5055416;28;20617;-70
2022/04/16 10:37:44;;;;;;;3.08;1.98;;;;;;;12.89;69.21;103452.47;5026405;28;20044;-71
2022/04/16 10:40:21;;;;;;;2.42;1.63;;;;;;;12.85;67.17;103455.19;5055787;28;20032;-71
2022/04/16 10:42:59;;;;;;;3.10;1.58;;;;;;;12.78;67.78;103459.69;5055846;28;20043;-72
2022/04/16 10:45:25;;;;;;;1.83;1.30;;;;;;;12.71;68.24;103458.00;5038079;28;20460;-73
2022/04/16 10:47:54;;;;;;;1.30;1.15;;;;;;;12.67;67.77;103458.94;5060060;28;20020;-73
2022/04/16 10:50:21;;;;;;;1.73;1.13;;;;;;;12.71;66.98;103458.91;5023954;28;20036;-71
2022/04/16 10:53:00;;;;;;;1.15;1.13;;;;;;;12.70;65.13;103458.91;5029725;28;20961;-70
2022/04/16 10:55:33;;;;;;;1.10;1.00;;;;;;;12.76;66.20;103453.53;5054055;28;20425;-71
2022/04/16 10:58:01;;;;;;;1.35;1.10;;;;;;;12.79;65.24;103445.50;5040466;28;20163;-78
2022/04/16 11:00:44;;;;;;;3.22;1.27;;;;;;;12.82;63.85;103453.44;5039753;28;20062;-74
2022/04/16 11:03:13;;;;;;;1.73;1.30;;;;;;;12.80;65.02;103446.38;5058955;28;20288;-87
2022/04/16 11:05:41;;;;;;;1.15;0.85;;;;;;;12.76;65.21;103451.72;5058681;28;20033;-81
2022/04/16 11:08:08;;;;;;;1.23;1.00;;;;;;;12.68;65.33;103458.06;5037281;28;21082;-82
2022/04/16 11:10:33;;;;;;;1.30;1.20;;;;;;;12.75;64.18;103452.63;5037761;28;20142;-74
2022/04/16 11:13:01;;;;;;;1.73;1.38;;;;;;;12.75;65.78;103443.78;5025834;28;20036;-73
2022/04/16 11:15:27;;;;;;;1.95;1.20;;;;;;;12.72;65.53;103443.81;5055595;28;20821;-70
2022/04/16 11:17:57;;;;;;;1.38;1.20;;;;;;;12.77;65.00;103447.28;5057019;28;20033;-69
2022/04/16 11:20:25;;;;;;;1.42;1.05;;;;;;;12.87;64.83;103446.25;5054114;28;20032;-68
2022/04/16 11:22:51;;;;;;;1.25;0.98;;;;;;;12.93;65.31;103436.44;5055221;28;20036;-70
2022/04/16 11:25:17;;;;;;;1.20;1.10;;;;;;;12.95;64.72;103438.19;5055902;28;20725;-69
2022/04/16 11:36:07;;;;;;;1.33;1.23;;;;;;;12.92;62.59;103432.03;5037859;28;20032;-71
2022/04/16 11:38:35;;;;;;;1.77;1.15;;;;;;;12.93;63.71;103439.09;5055144;28;20785;-71
2022/04/16 11:41:05;;;;;;;1.10;1.00;;;;;;;12.96;62.26;103428.44;5052699;28;20032;-71
2022/04/16 11:43:31;;;;;;;1.35;1.23;;;;;;;12.94;61.68;103432.88;5056602;28;20119;-71